Craig Municipal Airport
KCRG : rendu visible

Aérodrome :











RETROUVEZ-NOUS SUR...

 
LOGIN :

S'inscrire | Disclaimer

   EN    FR    IT 

 









Légende :    VFR   VFR Marginal   IFR   IFR Intensif   IFR Très Intensif
Visi : 
Plafond : 
>= 8 km
>= 3000ft
5 à 8 km
1000 à 3000 ft
1500m à 5 km
500 à 1000 ft
800 à 1500m
200 à 500 ft
< 800m
< 200 ft
Symboles :   Orages  Brouillard  Fortes neiges  Fortes précipitations  Vent > 20 kt






- Altitude de l'aérodrome : 41 ft


KCRG - Craig Municipal

DERNIER METAR :
  • 290321Z AUTO 34007KT 7SM OVC005 18/17 A3006 RMK AO2 T01780167

METARs EXPIRÉS :
  • 290253Z AUTO 33006KT 7SM OVC004 18/17 A3006 RMK AO2 SLP178 T01780167 53004
  • 290153Z 35005KT 8SM OVC004 18/17 A3005 RMK AO2 SLP175 T01830167
  • 290053Z 35006KT 9SM OVC005 18/17 A3005 RMK AO2 SLP174 T01830172

TAF KCRG
Valide du 29 à 00h jusqu'au 30 à 00h UTC


282339Z 2900/2924 36006KT P6SM OVC005
FM290400 36005KT 4SM BR OVC005
FM291400 01004KT 6SM BR BKN008 OVC012
FM291800 35005KT P6SM SCT009 BKN015
FIR KZJX / Amérique du Nord



MET'MAP, la Météo Aéronautique d'un coup d'oeil ! - Copyright ORBIFLY Décembre 2007 - Disclaimer

ORBIFLY MET'MAP TEAM :

Programmation & Développement : Alexandra Zaïnal
Sur une idée originale de : Baudouin d'Aumeries
Assistance à la programmation : Marc-Olivier Méhu
Soutien technique & logistique : Manuel Goepfert

Contact : metmap@orbifly.com




SOURCES & CREDITS :

   NOAA       Earth
Advisory